createdAt,value
2023-02-02T00:04:18.684Z,53.26
2023-02-02T00:09:22.349Z,53.16
2023-02-02T00:14:26.707Z,53.19
2023-02-02T00:19:31.455Z,53.12
2023-02-02T00:24:34.214Z,53.29
2023-02-02T00:29:39.752Z,53.30
2023-02-02T00:34:42.472Z,53.35
2023-02-02T00:39:45.697Z,53.32
2023-02-02T00:45:07.138Z,53.22
2023-02-02T00:50:13.051Z,53.19
2023-02-02T00:55:17.397Z,53.28
2023-02-02T01:00:23.743Z,53.27
2023-02-02T01:05:26.673Z,53.21
2023-02-02T01:10:29.791Z,52.99
2023-02-02T01:15:33.907Z,52.96
2023-02-02T01:20:36.833Z,52.93
2023-02-02T01:25:39.726Z,52.83
2023-02-02T01:30:43.874Z,52.84
2023-02-02T01:35:47.721Z,52.87
2023-02-02T01:40:54.487Z,52.64
2023-02-02T01:45:59.816Z,52.73
2023-02-02T01:51:05.307Z,52.60
2023-02-02T01:56:11.445Z,52.27
2023-02-02T02:01:16.072Z,52.34
2023-02-02T02:06:20.887Z,52.51
2023-02-02T02:11:24.853Z,52.51
2023-02-02T02:16:40.007Z,52.76
2023-02-02T02:22:13.484Z,52.76
2023-02-02T02:27:43.561Z,53.15
2023-02-02T02:32:51.431Z,52.87
2023-02-02T02:38:00.554Z,52.99
2023-02-02T02:43:08.919Z,52.97
2023-02-02T02:48:13.646Z,52.89
2023-02-02T02:53:21.175Z,53.20
2023-02-02T02:58:35.165Z,53.41
2023-02-02T03:03:53.633Z,53.73
2023-02-02T03:09:01.480Z,53.79
2023-02-02T03:14:09.493Z,53.81
2023-02-02T03:19:14.202Z,53.76
2023-02-02T03:24:16.975Z,54.02
2023-02-02T03:29:20.049Z,54.15
2023-02-02T03:34:24.211Z,53.95
2023-02-02T03:39:26.940Z,53.77
2023-02-02T03:44:29.818Z,54.32
2023-02-02T03:49:33.955Z,54.41
2023-02-02T03:54:36.683Z,54.46
2023-02-02T03:59:39.433Z,54.52
2023-02-02T04:04:43.585Z,54.41
2023-02-02T04:09:46.305Z,54.25
2023-02-02T04:14:49.074Z,54.35
2023-02-02T04:19:58.030Z,54.38
2023-02-02T04:25:00.818Z,54.23
2023-02-02T04:30:03.634Z,54.37
2023-02-02T04:35:09.003Z,53.99
2023-02-02T04:40:13.265Z,53.77
2023-02-02T04:45:17.067Z,54.16
2023-02-02T04:50:21.415Z,54.52
2023-02-02T04:55:25.364Z,55.03
2023-02-02T05:00:28.305Z,55.41
2023-02-02T05:05:32.426Z,55.90
2023-02-02T05:10:35.237Z,56.57
2023-02-02T05:15:37.988Z,56.38
2023-02-02T05:20:42.069Z,56.67
2023-02-02T05:25:44.798Z,56.96
2023-02-02T05:30:47.560Z,57.22
2023-02-02T05:35:51.649Z,57.40
2023-02-02T05:40:54.737Z,57.39
2023-02-02T05:45:57.725Z,57.55
2023-02-02T05:51:07.209Z,57.72
2023-02-02T05:56:10.027Z,58.10
2023-02-02T06:01:12.880Z,58.30
2023-02-02T06:06:17.058Z,58.27
2023-02-02T06:11:20.176Z,58.61
2023-02-02T06:16:22.948Z,58.70
2023-02-02T06:21:27.117Z,58.93
2023-02-02T06:26:30.363Z,59.00
2023-02-02T06:31:33.973Z,59.08
2023-02-02T06:36:38.251Z,58.97
2023-02-02T06:41:41.425Z,59.19
2023-02-02T06:46:44.317Z,59.32
2023-02-02T06:51:49.266Z,59.40
2023-02-02T06:56:52.053Z,59.61
2023-02-02T07:01:54.906Z,59.86
2023-02-02T07:06:59.093Z,59.89
2023-02-02T07:12:01.901Z,59.81
2023-02-02T07:17:04.934Z,60.05
2023-02-02T07:22:09.132Z,60.02
2023-02-02T07:27:12.021Z,60.04
2023-02-02T07:32:14.753Z,60.13
2023-02-02T07:37:20.153Z,60.00
2023-02-02T07:42:23.020Z,60.21
2023-02-02T07:47:26.126Z,60.21
2023-02-02T07:52:31.528Z,60.25
2023-02-02T07:57:34.272Z,60.26
2023-02-02T08:02:37.174Z,60.22
2023-02-02T08:07:41.438Z,58.93
2023-02-02T08:12:44.374Z,56.98
2023-02-02T08:17:49.873Z,55.35
2023-02-02T08:22:53.993Z,50.80
2023-02-02T08:27:58.670Z,46.67
2023-02-02T08:33:01.457Z,47.10
2023-02-02T08:38:07.427Z,48.59
2023-02-02T08:43:10.644Z,48.47
2023-02-02T08:48:14.424Z,48.74
2023-02-02T08:53:18.642Z,48.81
2023-02-02T08:58:21.438Z,49.25
2023-02-02T09:03:24.203Z,49.36
2023-02-02T09:08:28.417Z,49.78
2023-02-02T09:13:31.416Z,50.25
2023-02-02T09:18:34.216Z,50.48
2023-02-02T09:23:40.933Z,50.82
2023-02-02T09:28:45.920Z,51.35
2023-02-02T09:33:48.951Z,51.97
2023-02-02T09:38:53.424Z,52.36
2023-02-02T09:44:07.049Z,52.55
2023-02-02T09:49:15.333Z,52.51
2023-02-02T09:54:24.681Z,52.89
2023-02-02T09:59:32.348Z,53.17
2023-02-02T10:04:39.243Z,53.09
2023-02-02T10:09:48.458Z,53.63
2023-02-02T10:14:58.737Z,53.54
2023-02-02T10:20:07.774Z,53.65
2023-02-02T10:25:16.764Z,53.75
2023-02-02T10:30:25.517Z,53.99
2023-02-02T10:35:38.437Z,54.05
2023-02-02T10:40:55.631Z,54.24
2023-02-02T10:46:00.761Z,54.13
2023-02-02T10:51:12.192Z,54.44
2023-02-02T10:56:21.932Z,54.70
2023-02-02T11:01:24.771Z,54.57
2023-02-02T11:06:44.824Z,54.74
2023-02-02T11:11:52.814Z,54.64
2023-02-02T11:17:03.121Z,54.71
2023-02-02T11:22:06.046Z,54.75
2023-02-02T11:27:15.302Z,54.85
2023-02-02T11:32:28.929Z,54.76
2023-02-02T11:37:33.471Z,54.81
2023-02-02T11:42:37.885Z,54.71
2023-02-02T11:47:41.694Z,54.56
2023-02-02T11:52:47.205Z,54.52
2023-02-02T11:58:18.373Z,54.80
2023-02-02T12:03:36.765Z,54.73
2023-02-02T12:08:39.560Z,54.45
2023-02-02T12:13:55.470Z,55.49
2023-02-02T12:19:21.345Z,55.13
2023-02-02T12:24:32.671Z,56.16
2023-02-02T12:30:10.093Z,55.28
2023-02-02T12:35:35.551Z,55.10
2023-02-02T12:41:02.144Z,54.63
2023-02-02T12:46:34.408Z,54.52
2023-02-02T12:51:54.647Z,54.88
2023-02-02T12:57:07.913Z,55.21
2023-02-02T13:02:24.321Z,55.16
2023-02-02T13:07:41.729Z,54.99
2023-02-02T13:12:50.038Z,55.54
2023-02-02T13:17:56.587Z,55.83
2023-02-02T13:23:04.325Z,55.80
2023-02-02T13:28:13.493Z,56.02
2023-02-02T13:33:24.266Z,56.16
2023-02-02T13:38:30.249Z,56.15
2023-02-02T13:43:44.723Z,56.26
2023-02-02T13:49:00.371Z,56.39
2023-02-02T13:54:27.389Z,56.52
2023-02-02T13:59:49.046Z,56.43
2023-02-02T14:05:01.542Z,56.74
2023-02-02T14:10:05.391Z,56.81
2023-02-02T14:15:13.275Z,56.95
2023-02-02T14:20:43.126Z,57.08
2023-02-02T14:26:06.371Z,57.52
2023-02-02T14:31:31.587Z,57.76
2023-02-02T14:36:40.352Z,58.25
2023-02-02T14:42:17.298Z,58.13
2023-02-02T14:47:48.627Z,58.09
2023-02-02T14:53:02.726Z,58.31
2023-02-02T14:58:08.632Z,58.46
2023-02-02T15:03:35.132Z,58.29
2023-02-02T15:08:39.375Z,58.71
2023-02-02T15:13:46.530Z,58.77
2023-02-02T15:19:00.336Z,59.09
2023-02-02T15:24:07.794Z,59.05
2023-02-02T15:29:22.056Z,59.26
2023-02-02T15:34:28.528Z,59.30
2023-02-02T15:39:37.800Z,59.27
2023-02-02T15:44:40.830Z,59.44
2023-02-02T15:49:45.339Z,59.82
2023-02-02T15:54:55.115Z,59.87
2023-02-02T15:59:58.635Z,59.73
2023-02-02T16:05:01.727Z,59.76
2023-02-02T16:10:08.892Z,59.90
2023-02-02T16:15:19.962Z,59.73
2023-02-02T16:20:23.207Z,59.95
2023-02-02T16:25:27.989Z,59.97
2023-02-02T16:30:35.618Z,59.89
2023-02-02T16:35:40.818Z,59.90
2023-02-02T16:40:45.361Z,59.73
2023-02-02T16:45:51.579Z,59.96
2023-02-02T16:51:08.468Z,60.06
2023-02-02T16:56:24.723Z,59.88
2023-02-02T17:01:37.625Z,60.29
2023-02-02T17:06:51.709Z,60.49
2023-02-02T17:12:03.104Z,60.61
2023-02-02T17:17:07.566Z,60.81
2023-02-02T17:22:12.089Z,61.37
2023-02-02T17:27:19.280Z,61.19
2023-02-02T17:32:23.554Z,61.19
2023-02-02T17:37:26.589Z,61.07
2023-02-02T17:42:31.067Z,60.77
2023-02-02T17:47:36.782Z,60.06
2023-02-02T17:52:40.076Z,59.12
2023-02-02T17:57:46.250Z,58.44
2023-02-02T18:02:54.651Z,57.73
2023-02-02T18:07:58.684Z,57.27
2023-02-02T18:13:03.098Z,57.11
2023-02-02T18:18:06.037Z,56.83
2023-02-02T18:23:08.889Z,56.46
2023-02-02T18:28:15.856Z,56.33
2023-02-02T18:33:19.939Z,55.92
2023-02-02T18:38:22.981Z,55.85
2023-02-02T18:43:27.346Z,55.70
2023-02-02T18:48:30.470Z,55.56
2023-02-02T18:53:33.724Z,55.55
2023-02-02T18:58:38.206Z,55.21
2023-02-02T19:03:41.137Z,55.01
2023-02-02T19:08:43.991Z,55.00
2023-02-02T19:13:48.389Z,54.77
2023-02-02T19:18:51.471Z,54.83
2023-02-02T19:23:54.398Z,54.49
2023-02-02T19:29:03.790Z,54.61
2023-02-02T19:34:12.358Z,54.44
2023-02-02T19:39:18.720Z,54.11
2023-02-02T19:44:24.545Z,54.19
2023-02-02T19:49:32.489Z,54.14
2023-02-02T19:54:37.532Z,53.92
2023-02-02T19:59:43.301Z,53.72
2023-02-02T20:04:46.047Z,53.80
2023-02-02T20:09:50.202Z,53.70
2023-02-02T20:14:54.616Z,53.71
2023-02-02T20:19:57.501Z,53.35
2023-02-02T20:25:06.871Z,53.28
2023-02-02T20:30:21.833Z,53.36
2023-02-02T20:35:34.039Z,53.21
2023-02-02T20:40:36.847Z,53.09
2023-02-02T20:45:41.080Z,52.88
2023-02-02T20:50:46.599Z,53.14
2023-02-02T20:55:49.405Z,53.04
2023-02-02T21:00:54.760Z,52.93
2023-02-02T21:05:57.729Z,52.83
2023-02-02T21:11:00.639Z,52.84
2023-02-02T21:16:05.204Z,52.97
2023-02-02T21:21:08.004Z,52.99
2023-02-02T21:26:10.758Z,52.72
2023-02-02T21:31:16.620Z,52.79
2023-02-02T21:36:30.212Z,52.89
2023-02-02T21:41:34.227Z,52.76
2023-02-02T21:46:39.762Z,52.70
2023-02-02T21:51:43.694Z,53.21
2023-02-02T21:56:46.572Z,53.32
2023-02-02T22:01:52.644Z,53.27
2023-02-02T22:07:00.324Z,53.29
2023-02-02T22:12:10.820Z,53.72
2023-02-02T22:17:22.867Z,53.56
2023-02-02T22:27:44.474Z,53.97
2023-02-02T22:32:48.640Z,54.16
2023-02-02T22:37:52.120Z,54.15
2023-02-02T22:42:56.697Z,54.27
2023-02-02T22:48:00.962Z,54.23
2023-02-02T22:53:04.976Z,54.40
2023-02-02T22:58:07.745Z,54.38
2023-02-02T23:03:11.910Z,54.71
2023-02-02T23:08:14.770Z,54.67
2023-02-02T23:13:17.934Z,54.87
2023-02-02T23:18:22.056Z,54.95
2023-02-02T23:23:24.935Z,55.15
2023-02-02T23:28:27.738Z,55.29
2023-02-02T23:33:32.245Z,55.15
2023-02-02T23:38:35.166Z,55.01
2023-02-02T23:43:38.015Z,55.27
2023-02-02T23:48:42.205Z,55.24
2023-02-02T23:53:45.133Z,55.44
2023-02-02T23:58:48.063Z,55.44
